Terminal Aerodrome Forecast
Issued by NWS

Home | Current Version | Previous Version | Text Only | Print | Product List | Glossary Off
Versions: 1 2 3 4 5 6 7 8 9 10 11 12 13 14 15 16 17 18 19 20 21 22 23 24
000 FTUS41 KBOX 310530 TAFHYA TAF KHYA 310530Z 3106/0106 25008KT P6SM BKN060 FM311400 27007KT P6SM SCT080 FM311800 23011G20KT P6SM SCT250 FM010300 27007KT P6SM FEW250=

USA.gov is the U.S. government's official web portal to all federal, state and local government web resources and services.